Time;durP1;ratioP1;P1;durP2;ratioP2;P2;SDS_P1;SDS_P2;PMS_P1;PMS_P2;Temp;Humidity;BMP_temperature;BMP_pressure;BME280_temperature;BME280_humidity;BME280_pressure;Samples;Min_cycle;Max_cycle;Signal;HPM_P1;HPM_P2
2022/06/28 00:00:34;;;;;;;1999.90;999.90;;;;;;;;;;5137154;27;20403;-74
2022/06/28 00:03:02;;;;;;;1999.90;999.90;;;;;;;;;;5135013;27;21138;-74
2022/06/28 00:05:30;;;;;;;1999.90;999.90;;;;;;;;;;5139120;27;20384;-74
2022/06/28 00:07:58;;;;;;;1999.90;999.90;;;;;;;;;;5140155;27;20410;-74
2022/06/28 00:10:26;;;;;;;1999.90;999.90;;;;;;;;;;5136099;27;20397;-74
2022/06/28 00:12:55;;;;;;;1999.90;999.90;;;;;;;;;;5134069;27;20391;-74
2022/06/28 00:18:08;;;;;;;1999.90;999.90;;;;;;;;;;5135845;27;20465;-74
2022/06/28 00:20:36;;;;;;;1999.90;999.90;;;;;;;;;;5136811;27;20399;-73
2022/06/28 00:23:04;;;;;;;1999.90;999.90;;;;;;;;;;5140437;27;20476;-74
2022/06/28 00:25:32;;;;;;;1999.90;999.90;;;;;;;;;;5140926;27;20437;-73
2022/06/28 00:28:01;;;;;;;1999.90;999.90;;;;;;;;;;5143037;27;20376;-74
2022/06/28 00:30:30;;;;;;;1999.90;999.90;;;;;;;;;;5139888;27;20379;-75
2022/06/28 00:32:58;;;;;;;1999.90;999.90;;;;;;;;;;5121879;27;20426;-75
2022/06/28 00:35:26;;;;;;;1999.90;999.90;;;;;;;;;;5121920;27;20419;-73
2022/06/28 00:37:54;;;;;;;1999.90;999.90;;;;;;;;;;5123995;27;20427;-75
2022/06/28 00:40:22;;;;;;;1999.90;999.90;;;;;;;;;;5142924;27;20376;-75
2022/06/28 00:42:49;;;;;;;1999.90;999.90;;;;;;;;;;5139001;27;20452;-75
2022/06/28 00:45:19;;;;;;;1999.90;999.90;;;;;;;;;;5139018;27;20391;-75
2022/06/28 00:47:46;;;;;;;1999.90;999.90;;;;;;;;;;5123570;27;20408;-75
2022/06/28 00:50:14;;;;;;;1999.90;999.90;;;;;;;;;;5141628;27;20402;-75
2022/06/28 00:52:57;;;;;;;1999.90;999.90;;;;;;;;;;5139599;27;20408;-76
2022/06/28 00:55:25;;;;;;;1999.90;999.90;;;;;;;;;;5141463;27;20403;-77
2022/06/28 00:57:53;;;;;;;1999.90;999.90;;;;;;;;;;5143871;27;21404;-73
2022/06/28 01:00:22;;;;;;;1999.90;999.90;;;;;;;;;;5146489;27;20913;-75
2022/06/28 01:02:50;;;;;;;1999.90;999.90;;;;;;;;;;5146738;27;20390;-73
2022/06/28 01:05:18;;;;;;;1999.90;999.90;;;;;;;;;;5137084;27;20488;-77
2022/06/28 01:07:46;;;;;;;1999.90;999.90;;;;;;;;;;5137670;27;21632;-74
2022/06/28 01:10:14;;;;;;;1999.90;999.90;;;;;;;;;;5140464;27;21341;-74
2022/06/28 01:12:42;;;;;;;1999.90;999.90;;;;;;;;;;5137859;27;20452;-75
2022/06/28 01:15:10;;;;;;;1999.90;999.90;;;;;;;;;;5138638;27;20392;-74
2022/06/28 01:17:50;;;;;;;1999.90;999.90;;;;;;;;;;5120507;27;20652;-74
2022/06/28 01:20:30;;;;;;;1999.90;999.90;;;;;;;;;;5132499;27;20392;-73
2022/06/28 01:23:25;;;;;;;1999.90;999.90;;;;;;;;;;5136467;27;20412;-76
2022/06/28 01:26:13;;;;;;;1999.90;999.90;;;;;;;;;;5118700;27;20416;-75
2022/06/28 01:28:44;;;;;;;1999.90;999.90;;;;;;;;;;5138116;27;20399;-76
2022/06/28 01:31:24;;;;;;;1999.90;999.90;;;;;;;;;;5151885;27;20934;-76
2022/06/28 01:33:53;;;;;;;1999.90;999.90;;;;;;;;;;5139413;27;20453;-74
2022/06/28 01:36:22;;;;;;;1999.90;999.90;;;;;;;;;;5137791;27;20384;-76
2022/06/28 01:38:51;;;;;;;1999.90;999.90;;;;;;;;;;5139169;27;20404;-76
2022/06/28 01:41:34;;;;;;;1999.90;999.90;;;;;;;;;;5138324;27;20518;-76
2022/06/28 01:44:09;;;;;;;1999.90;999.90;;;;;;;;;;5135663;27;20399;-77
2022/06/28 01:46:45;;;;;;;1999.90;999.90;;;;;;;;;;5137191;27;20396;-76
2022/06/28 01:49:17;;;;;;;1999.90;999.90;;;;;;;;;;5120743;27;31091;-73
2022/06/28 01:51:44;;;;;;;1999.90;999.90;;;;;;;;;;5134902;27;20403;-75
2022/06/28 01:54:16;;;;;;;1999.90;999.90;;;;;;;;;;5136719;27;20434;-75
2022/06/28 01:56:44;;;;;;;1999.90;999.90;;;;;;;;;;5119038;27;21330;-73
2022/06/28 01:59:19;;;;;;;1999.90;999.90;;;;;;;;;;5139069;27;20915;-74
2022/06/28 02:02:02;;;;;;;1999.90;999.90;;;;;;;;;;5132180;27;20398;-77
2022/06/28 02:04:44;;;;;;;1999.90;999.90;;;;;;;;;;5136294;27;20383;-75
2022/06/28 02:07:16;;;;;;;1999.90;999.90;;;;;;;;;;5134446;27;20411;-76
2022/06/28 02:09:46;;;;;;;1999.90;999.90;;;;;;;;;;5119348;27;20755;-75
2022/06/28 02:12:14;;;;;;;1999.90;999.90;;;;;;;;;;5116689;27;20976;-78
2022/06/28 02:14:44;;;;;;;1999.90;999.90;;;;;;;;;;5136823;27;20412;-75
2022/06/28 02:17:12;;;;;;;1999.90;999.90;;;;;;;;;;5137051;27;20829;-75
2022/06/28 02:19:41;;;;;;;1999.90;999.90;;;;;;;;;;5134008;27;20582;-75
2022/06/28 02:22:09;;;;;;;1999.90;999.90;;;;;;;;;;5135493;27;20407;-76
2022/06/28 02:24:37;;;;;;;1999.90;999.90;;;;;;;;;;5137209;27;20433;-75
2022/06/28 02:27:06;;;;;;;1999.90;999.90;;;;;;;;;;5135234;27;20392;-76
2022/06/28 02:29:34;;;;;;;1999.90;999.90;;;;;;;;;;5135398;27;20499;-75
2022/06/28 02:32:01;;;;;;;1999.90;999.90;;;;;;;;;;5130700;27;20386;-76
2022/06/28 02:42:47;;;;;;;1999.90;999.90;;;;;;;;;;5138244;27;20388;-76
2022/06/28 02:45:14;;;;;;;1999.90;999.90;;;;;;;;;;5152205;27;20502;-76
2022/06/28 02:47:42;;;;;;;1999.90;999.90;;;;;;;;;;5135876;27;20396;-75
2022/06/28 02:50:11;;;;;;;1999.90;999.90;;;;;;;;;;5137992;27;20462;-75
2022/06/28 02:52:38;;;;;;;1999.90;999.90;;;;;;;;;;5136103;27;20384;-75
2022/06/28 02:55:07;;;;;;;1999.90;999.90;;;;;;;;;;5137052;27;20921;-75
2022/06/28 02:57:36;;;;;;;1999.90;999.90;;;;;;;;;;5138843;27;20837;-75
2022/06/28 03:00:07;;;;;;;1999.90;999.90;;;;;;;;;;5135564;27;20548;-75
2022/06/28 03:02:35;;;;;;;1999.90;999.90;;;;;;;;;;5133404;27;20475;-76
2022/06/28 03:05:06;;;;;;;1999.90;999.90;;;;;;;;;;5136455;27;20727;-75
2022/06/28 03:07:34;;;;;;;1999.90;999.90;;;;;;;;;;5136457;27;20411;-75
2022/06/28 03:10:02;;;;;;;1999.90;999.90;;;;;;;;;;5135093;27;20412;-73
2022/06/28 03:12:29;;;;;;;1999.90;999.90;;;;;;;;;;5134470;27;20376;-74
2022/06/28 03:14:57;;;;;;;1999.90;999.90;;;;;;;;;;5136031;27;20465;-74
2022/06/28 03:17:27;;;;;;;1999.90;999.90;;;;;;;;;;5135942;27;20407;-73
2022/06/28 03:19:54;;;;;;;1999.90;999.90;;;;;;;;;;5136736;27;20412;-74
2022/06/28 03:22:22;;;;;;;1999.90;999.90;;;;;;;;;;5136079;27;20388;-73
2022/06/28 03:24:50;;;;;;;1999.90;999.90;;;;;;;;;;5135444;27;20874;-73
2022/06/28 03:27:18;;;;;;;1999.90;999.90;;;;;;;;;;5136302;27;20444;-73
2022/06/28 03:29:46;;;;;;;1999.90;999.90;;;;;;;;;;5137305;27;20491;-74
2022/06/28 03:32:20;;;;;;;1999.90;999.90;;;;;;;;;;5132474;27;20828;-74
2022/06/28 03:34:49;;;;;;;1999.90;999.90;;;;;;;;;;5135869;27;20423;-74
2022/06/28 03:37:20;;;;;;;1999.90;999.90;;;;;;;;;;5136813;27;20404;-73
2022/06/28 03:39:50;;;;;;;1999.90;999.90;;;;;;;;;;5151692;27;20464;-75
2022/06/28 03:42:20;;;;;;;1999.90;999.90;;;;;;;;;;5132020;27;20391;-74
2022/06/28 03:44:50;;;;;;;1999.90;999.90;;;;;;;;;;5118795;27;20453;-74
2022/06/28 03:47:19;;;;;;;1999.90;999.90;;;;;;;;;;5135426;27;20445;-74
2022/06/28 03:49:48;;;;;;;1999.90;999.90;;;;;;;;;;5137546;27;20404;-75
2022/06/28 03:52:29;;;;;;;1999.90;999.90;;;;;;;;;;5151063;27;20395;-75
2022/06/28 03:55:15;;;;;;;1999.90;999.90;;;;;;;;;;5132858;27;20502;-73
2022/06/28 03:57:46;;;;;;;1999.90;999.90;;;;;;;;;;5122049;27;20388;-75
2022/06/28 04:00:14;;;;;;;1999.90;999.90;;;;;;;;;;5137728;27;20410;-73
2022/06/28 04:02:47;;;;;;;1999.90;999.90;;;;;;;;;;5134062;27;20387;-74
2022/06/28 04:05:30;;;;;;;1999.90;999.90;;;;;;;;;;5139471;27;21373;-73
2022/06/28 04:08:01;;;;;;;1999.90;999.90;;;;;;;;;;5118023;27;20400;-75
2022/06/28 04:11:13;;;;;;;1999.90;999.90;;;;;;;;;;5119966;27;20426;-73
2022/06/28 04:13:41;;;;;;;1999.90;999.90;;;;;;;;;;5155384;27;20387;-70
2022/06/28 04:16:10;;;;;;;1999.90;999.90;;;;;;;;;;5138245;27;20515;-70
2022/06/28 04:18:38;;;;;;;1999.90;999.90;;;;;;;;;;5134543;27;20404;-71
2022/06/28 04:21:27;;;;;;;1999.90;999.90;;;;;;;;;;5133046;27;20507;-70
2022/06/28 04:24:09;;;;;;;1999.90;999.90;;;;;;;;;;5136809;27;20822;-70
2022/06/28 04:26:46;;;;;;;1999.90;999.90;;;;;;;;;;5155404;27;20430;-69
2022/06/28 04:29:19;;;;;;;1999.90;999.90;;;;;;;;;;5138203;27;20400;-72
2022/06/28 04:31:47;;;;;;;1999.90;999.90;;;;;;;;;;5134366;27;20412;-72
2022/06/28 04:34:15;;;;;;;1999.90;999.90;;;;;;;;;;5130768;27;20415;-71
2022/06/28 04:36:48;;;;;;;1999.90;999.90;;;;;;;;;;5132330;27;20396;-70
2022/06/28 04:39:16;;;;;;;1999.90;999.90;;;;;;;;;;5117999;27;20388;-72
2022/06/28 04:42:02;;;;;;;1999.90;999.90;;;;;;;;;;5134374;27;21194;-72
2022/06/28 04:44:33;;;;;;;1999.90;999.90;;;;;;;;;;5136328;27;20454;-72
2022/06/28 04:47:02;;;;;;;1999.90;999.90;;;;;;;;;;5153109;27;20392;-71
2022/06/28 04:49:32;;;;;;;1999.90;999.90;;;;;;;;;;5149308;27;20400;-70
2022/06/28 04:52:01;;;;;;;1999.90;999.90;;;;;;;;;;5132321;27;20403;-71
2022/06/28 04:54:39;;;;;;;1999.90;999.90;;;;;;;;;;5119634;27;20396;-72
2022/06/28 04:57:26;;;;;;;1999.90;999.90;;;;;;;;;;5137392;27;20473;-72
2022/06/28 05:00:16;;;;;;;1999.90;999.90;;;;;;;;;;5129079;27;21739;-70
2022/06/28 05:02:55;;;;;;;1999.90;999.90;;;;;;;;;;5130685;27;20402;-71
2022/06/28 05:05:38;;;;;;;1999.90;999.90;;;;;;;;;;5135584;27;20442;-70
2022/06/28 05:08:07;;;;;;;1999.90;999.90;;;;;;;;;;5133068;27;20853;-74
2022/06/28 05:10:51;;;;;;;1999.90;999.90;;;;;;;;;;5123278;22;21240;-71
2022/06/28 05:13:39;;;;;;;1999.90;999.90;;;;;;;;;;5100157;27;21330;-73
2022/06/28 05:16:10;;;;;;;1999.90;999.90;;;;;;;;;;5114201;27;20505;-69
2022/06/28 05:18:38;;;;;;;1999.90;999.90;;;;;;;;;;5101656;27;20494;-69
2022/06/28 05:21:09;;;;;;;1999.90;999.90;;;;;;;;;;5090534;27;20411;-71
2022/06/28 05:23:41;;;;;;;1999.90;999.90;;;;;;;;;;5112063;27;20426;-71
2022/06/28 05:26:09;;;;;;;1999.90;999.90;;;;;;;;;;5111729;27;20465;-71
2022/06/28 05:28:45;;;;;;;1999.90;999.90;;;;;;;;;;5112773;27;20446;-71
2022/06/28 05:31:13;;;;;;;1999.90;999.90;;;;;;;;;;5095755;27;20417;-71
2022/06/28 05:33:41;;;;;;;1999.90;999.90;;;;;;;;;;5112702;27;20512;-70
2022/06/28 05:36:09;;;;;;;1999.90;999.90;;;;;;;;;;5117478;27;20499;-71
2022/06/28 05:38:36;;;;;;;1999.90;999.90;;;;;;;;;;5115644;27;21446;-71
2022/06/28 05:41:06;;;;;;;1999.90;999.90;;;;;;;;;;5132289;27;20407;-71
2022/06/28 05:43:33;;;;;;;1999.90;999.90;;;;;;;;;;5099909;27;20488;-71
2022/06/28 05:46:01;;;;;;;1999.90;999.90;;;;;;;;;;5099186;27;20398;-71
2022/06/28 05:48:29;;;;;;;1999.90;999.90;;;;;;;;;;5098668;27;20664;-71
2022/06/28 05:50:57;;;;;;;1999.90;999.90;;;;;;;;;;5117013;27;21139;-71
2022/06/28 05:53:25;;;;;;;1999.90;999.90;;;;;;;;;;5117570;27;20504;-71
2022/06/28 05:55:52;;;;;;;1999.90;999.90;;;;;;;;;;5117457;27;20385;-71
2022/06/28 05:58:22;;;;;;;1999.90;999.90;;;;;;;;;;5093473;27;20397;-71
2022/06/28 06:00:49;;;;;;;1999.90;999.90;;;;;;;;;;5097394;27;20393;-71
2022/06/28 06:03:17;;;;;;;1999.90;999.90;;;;;;;;;;5098776;27;20878;-71
2022/06/28 06:05:45;;;;;;;1999.90;999.90;;;;;;;;;;5114200;27;21347;-71
2022/06/28 06:08:13;;;;;;;1999.90;999.90;;;;;;;;;;5098877;27;20407;-71
2022/06/28 06:10:42;;;;;;;1999.90;999.90;;;;;;;;;;5115779;27;20487;-71
2022/06/28 06:13:11;;;;;;;1999.90;999.90;;;;;;;;;;5112788;27;20425;-71
2022/06/28 06:15:40;;;;;;;1999.90;999.90;;;;;;;;;;5098395;27;20460;-71
2022/06/28 06:18:08;;;;;;;1999.90;999.90;;;;;;;;;;5115838;27;20421;-71
2022/06/28 06:20:36;;;;;;;1999.90;999.90;;;;;;;;;;5097467;27;20382;-71
2022/06/28 06:23:05;;;;;;;1999.90;999.90;;;;;;;;;;5098156;27;20409;-71
2022/06/28 06:25:45;;;;;;;1999.90;999.90;;;;;;;;;;5118306;27;20385;-71
2022/06/28 06:28:13;;;;;;;1999.90;999.90;;;;;;;;;;5113329;27;20454;-71
2022/06/28 06:30:42;;;;;;;1999.90;999.90;;;;;;;;;;5114716;27;20905;-71
2022/06/28 06:33:19;;;;;;;1999.90;999.90;;;;;;;;;;5115229;27;20468;-72
2022/06/28 06:36:06;;;;;;;1999.90;999.90;;;;;;;;;;5115102;27;20401;-70
2022/06/28 06:38:34;;;;;;;1999.90;999.90;;;;;;;;;;5099815;27;20401;-71
2022/06/28 06:41:02;;;;;;;1999.90;999.90;;;;;;;;;;5096844;27;20477;-71
2022/06/28 06:43:31;;;;;;;1999.90;999.90;;;;;;;;;;5098251;27;20410;-71
2022/06/28 06:46:09;;;;;;;1999.90;999.90;;;;;;;;;;5089885;27;20396;-71
2022/06/28 06:48:38;;;;;;;1999.90;999.90;;;;;;;;;;5110798;27;20554;-71
2022/06/28 06:51:06;;;;;;;1999.90;999.90;;;;;;;;;;5109455;27;20398;-71
2022/06/28 06:53:34;;;;;;;1999.90;999.90;;;;;;;;;;5111093;27;20401;-71
2022/06/28 06:56:02;;;;;;;1999.90;999.90;;;;;;;;;;5089302;27;20405;-72
2022/06/28 06:58:31;;;;;;;1999.90;999.90;;;;;;;;;;5091267;27;22201;-71
2022/06/28 07:00:59;;;;;;;1999.90;999.90;;;;;;;;;;5088701;27;20401;-71
2022/06/28 07:03:29;;;;;;;1999.90;999.90;;;;;;;;;;5107922;27;20427;-70
2022/06/28 07:05:59;;;;;;;1999.90;999.90;;;;;;;;;;5112884;27;20388;-70
2022/06/28 07:08:27;;;;;;;1999.90;999.90;;;;;;;;;;5113251;27;20509;-69
2022/06/28 07:11:01;;;;;;;1999.90;999.90;;;;;;;;;;5109176;27;20474;-69
2022/06/28 07:13:29;;;;;;;1999.90;999.90;;;;;;;;;;5109624;27;20410;-69
2022/06/28 07:15:57;;;;;;;1999.90;999.90;;;;;;;;;;5107605;27;20386;-69
2022/06/28 07:18:25;;;;;;;1999.90;999.90;;;;;;;;;;5108554;27;21331;-70
2022/06/28 07:20:59;;;;;;;1999.90;999.90;;;;;;;;;;5108592;27;20398;-70
2022/06/28 07:23:27;;;;;;;1999.90;999.90;;;;;;;;;;5093985;27;20420;-69
2022/06/28 07:25:55;;;;;;;1999.90;999.90;;;;;;;;;;5089630;27;20416;-70
2022/06/28 07:28:23;;;;;;;1999.90;999.90;;;;;;;;;;5112921;27;20962;-69
2022/06/28 07:30:51;;;;;;;1999.90;999.90;;;;;;;;;;5109216;27;20409;-70
2022/06/28 07:33:20;;;;;;;1999.90;999.90;;;;;;;;;;5109964;27;20421;-70
2022/06/28 07:35:48;;;;;;;1999.90;999.90;;;;;;;;;;5113405;27;20496;-70
2022/06/28 07:38:17;;;;;;;1999.90;999.90;;;;;;;;;;5118676;27;20381;-69
2022/06/28 07:41:04;;;;;;;1999.90;999.90;;;;;;;;;;5113699;27;20486;-69
2022/06/28 07:44:01;;;;;;;1999.90;999.90;;;;;;;;;;5114085;27;20401;-71
2022/06/28 07:46:31;;;;;;;1999.90;999.90;;;;;;;;;;5088734;27;20939;-70
2022/06/28 07:48:59;;;;;;;1999.90;999.90;;;;;;;;;;5093918;27;20398;-69
2022/06/28 07:54:19;;;;;;;1999.90;999.90;;;;;;;;;;5131413;27;21159;-70
2022/06/28 07:57:00;;;;;;;1999.90;999.90;;;;;;;;;;5115608;27;20387;-70
2022/06/28 07:59:29;;;;;;;1999.90;999.90;;;;;;;;;;5117854;27;20406;-70
2022/06/28 08:01:58;;;;;;;1999.90;999.90;;;;;;;;;;5097222;27;20401;-70
2022/06/28 08:04:37;;;;;;;1999.90;999.90;;;;;;;;;;5093368;27;20486;-70
2022/06/28 08:07:07;;;;;;;1999.90;999.90;;;;;;;;;;5117991;27;20400;-70
2022/06/28 08:09:36;;;;;;;1999.90;999.90;;;;;;;;;;5094009;27;20390;-70
2022/06/28 08:12:05;;;;;;;1999.90;999.90;;;;;;;;;;5090778;27;20422;-70
2022/06/28 08:14:32;;;;;;;1999.90;999.90;;;;;;;;;;5092691;27;20397;-69
2022/06/28 08:17:02;;;;;;;1999.90;999.90;;;;;;;;;;5093962;27;20393;-68
2022/06/28 08:19:31;;;;;;;1999.90;999.90;;;;;;;;;;5098316;27;20416;-68
2022/06/28 08:21:59;;;;;;;1999.90;999.90;;;;;;;;;;5113377;27;20401;-69
2022/06/28 08:24:27;;;;;;;1999.90;999.90;;;;;;;;;;5090968;27;20481;-69
2022/06/28 08:26:56;;;;;;;1999.90;999.90;;;;;;;;;;5095962;27;20417;-69
2022/06/28 08:29:24;;;;;;;1999.90;999.90;;;;;;;;;;5109331;27;20397;-69
2022/06/28 08:31:51;;;;;;;1999.90;999.90;;;;;;;;;;5113893;27;20413;-69
2022/06/28 08:34:19;;;;;;;1999.90;999.90;;;;;;;;;;5116594;27;20415;-69
2022/06/28 08:36:47;;;;;;;1999.90;999.90;;;;;;;;;;5116197;27;21384;-69
2022/06/28 08:39:15;;;;;;;1999.90;999.90;;;;;;;;;;5115075;27;20878;-69
2022/06/28 08:41:43;;;;;;;1999.90;999.90;;;;;;;;;;5117090;27;20875;-69
2022/06/28 08:44:13;;;;;;;1999.90;999.90;;;;;;;;;;5110370;27;20417;-70
2022/06/28 08:46:42;;;;;;;1999.90;999.90;;;;;;;;;;5110094;27;20449;-68
2022/06/28 08:49:13;;;;;;;1999.90;999.90;;;;;;;;;;5114552;27;22745;-69
2022/06/28 08:51:41;;;;;;;1999.90;999.90;;;;;;;;;;5109879;27;22051;-69
2022/06/28 08:54:09;;;;;;;1999.90;999.90;;;;;;;;;;5118076;27;20412;-69
2022/06/28 08:56:39;;;;;;;1999.90;999.90;;;;;;;;;;5118287;27;21048;-70
2022/06/28 08:59:07;;;;;;;1999.90;999.90;;;;;;;;;;5116253;27;20389;-69
2022/06/28 09:01:36;;;;;;;1999.90;999.90;;;;;;;;;;5107136;27;20570;-69
2022/06/28 09:04:05;;;;;;;1999.90;999.90;;;;;;;;;;5114262;27;20397;-69
2022/06/28 09:06:33;;;;;;;1999.90;999.90;;;;;;;;;;5112939;27;20454;-69
2022/06/28 09:09:00;;;;;;;1999.90;999.90;;;;;;;;;;5116889;27;20396;-69
2022/06/28 09:11:36;;;;;;;1999.90;999.90;;;;;;;;;;5116810;27;20386;-70
2022/06/28 09:14:03;;;;;;;1999.90;999.90;;;;;;;;;;5118025;27;20430;-69
2022/06/28 09:16:31;;;;;;;1999.90;999.90;;;;;;;;;;5117943;27;20390;-70
2022/06/28 09:19:01;;;;;;;1999.90;999.90;;;;;;;;;;5120095;27;20945;-70
2022/06/28 09:21:28;;;;;;;1999.90;999.90;;;;;;;;;;5133714;27;20409;-70
2022/06/28 09:24:01;;;;;;;1999.90;999.90;;;;;;;;;;5117394;27;20450;-70
2022/06/28 09:26:29;;;;;;;1999.90;999.90;;;;;;;;;;5101311;27;20392;-69
2022/06/28 09:28:57;;;;;;;1999.90;999.90;;;;;;;;;;5120743;27;20481;-69
2022/06/28 09:31:25;;;;;;;1999.90;999.90;;;;;;;;;;5098985;27;20402;-69
2022/06/28 09:34:05;;;;;;;1999.90;999.90;;;;;;;;;;5118577;27;20501;-70
2022/06/28 09:36:34;;;;;;;1999.90;999.90;;;;;;;;;;5118154;27;20385;-70
2022/06/28 09:39:10;;;;;;;1999.90;999.90;;;;;;;;;;5120393;27;20467;-70
2022/06/28 09:41:38;;;;;;;1999.90;999.90;;;;;;;;;;5114332;27;20382;-69
2022/06/28 09:44:26;;;;;;;1999.90;999.90;;;;;;;;;;5117760;27;20406;-70
2022/06/28 09:46:57;;;;;;;1999.90;999.90;;;;;;;;;;5118725;27;20430;-68
2022/06/28 09:49:29;;;;;;;1999.90;999.90;;;;;;;;;;5119554;27;20876;-69
2022/06/28 09:51:57;;;;;;;1999.90;999.90;;;;;;;;;;5117143;27;20390;-68
2022/06/28 09:54:26;;;;;;;1999.90;999.90;;;;;;;;;;5118037;27;20820;-69
2022/06/28 09:56:55;;;;;;;1999.90;999.90;;;;;;;;;;5118560;27;20447;-70
2022/06/28 09:59:24;;;;;;;1999.90;999.90;;;;;;;;;;5120190;27;20432;-69
2022/06/28 10:01:52;;;;;;;1999.90;999.90;;;;;;;;;;5116293;27;20410;-69
2022/06/28 10:04:21;;;;;;;1999.90;999.90;;;;;;;;;;5118545;27;20458;-70
2022/06/28 10:06:50;;;;;;;1999.90;999.90;;;;;;;;;;5101641;27;20382;-70
2022/06/28 10:09:19;;;;;;;1999.90;999.90;;;;;;;;;;5119060;27;20446;-70
2022/06/28 10:17:28;;;;;;;1999.90;999.90;;;;;;;;;;5117616;27;20412;-69
2022/06/28 10:19:58;;;;;;;1999.90;999.90;;;;;;;;;;5119680;27;20992;-70
2022/06/28 10:22:27;;;;;;;1999.90;999.90;;;;;;;;;;5116162;27;20401;-70
2022/06/28 10:24:55;;;;;;;1999.90;999.90;;;;;;;;;;5118019;27;20397;-70
2022/06/28 10:27:23;;;;;;;1999.90;999.90;;;;;;;;;;5117359;27;20389;-70
2022/06/28 10:30:09;;;;;;;1999.90;999.90;;;;;;;;;;5119213;27;20417;-71
2022/06/28 10:32:41;;;;;;;1999.90;999.90;;;;;;;;;;5114189;27;20409;-71
2022/06/28 10:35:10;;;;;;;1999.90;999.90;;;;;;;;;;5116665;27;20420;-70
2022/06/28 10:38:07;;;;;;;1999.90;999.90;;;;;;;;;;5117568;27;20487;-70
2022/06/28 10:40:38;;;;;;;1999.90;999.90;;;;;;;;;;5099937;27;20426;-71
2022/06/28 10:43:13;;;;;;;1999.90;999.90;;;;;;;;;;5117193;27;20421;-71
2022/06/28 10:45:56;;;;;;;1999.90;999.90;;;;;;;;;;5117672;27;20397;-70
2022/06/28 10:48:23;;;;;;;1999.90;999.90;;;;;;;;;;5116170;27;20471;-70
2022/06/28 10:50:56;;;;;;;1999.90;999.90;;;;;;;;;;5111495;27;20483;-71
2022/06/28 10:53:25;;;;;;;1999.90;999.90;;;;;;;;;;5134034;27;20471;-71
2022/06/28 10:56:18;;;;;;;1999.90;999.90;;;;;;;;;;5116256;27;20405;-71
2022/06/28 10:58:54;;;;;;;1999.90;999.90;;;;;;;;;;5117483;27;20493;-71
2022/06/28 11:01:37;;;;;;;1999.90;999.90;;;;;;;;;;5114111;27;20394;-71
2022/06/28 11:04:09;;;;;;;1999.90;999.90;;;;;;;;;;5116557;27;20415;-71
2022/06/28 11:06:40;;;;;;;1999.90;999.90;;;;;;;;;;5109571;27;20476;-71
2022/06/28 11:09:12;;;;;;;1999.90;999.90;;;;;;;;;;5118977;27;20398;-72
2022/06/28 11:11:55;;;;;;;1999.90;999.90;;;;;;;;;;5115763;27;20444;-71
2022/06/28 11:14:30;;;;;;;1999.90;999.90;;;;;;;;;;5099130;27;20374;-71
2022/06/28 11:17:13;;;;;;;1999.90;999.90;;;;;;;;;;5118447;27;20401;-70
2022/06/28 11:19:50;;;;;;;1999.90;999.90;;;;;;;;;;5118131;27;20397;-70
2022/06/28 11:22:19;;;;;;;1999.90;999.90;;;;;;;;;;5098127;27;20421;-71
2022/06/28 11:24:48;;;;;;;1999.90;999.90;;;;;;;;;;5116567;27;20397;-71
2022/06/28 11:27:22;;;;;;;1999.90;999.90;;;;;;;;;;5100165;27;21186;-71
2022/06/28 11:29:51;;;;;;;1999.90;999.90;;;;;;;;;;5117262;27;20386;-71
2022/06/28 11:32:19;;;;;;;1999.90;999.90;;;;;;;;;;5115379;27;20386;-71
2022/06/28 11:34:54;;;;;;;1999.90;999.90;;;;;;;;;;5117176;27;20390;-72
2022/06/28 11:37:23;;;;;;;1999.90;999.90;;;;;;;;;;5118661;27;20405;-71
2022/06/28 11:39:53;;;;;;;1999.90;999.90;;;;;;;;;;5117014;27;20390;-72
2022/06/28 11:42:21;;;;;;;1999.90;999.90;;;;;;;;;;5113883;27;21274;-72
2022/06/28 11:44:50;;;;;;;1999.90;999.90;;;;;;;;;;5118327;27;20393;-71
2022/06/28 11:47:18;;;;;;;1999.90;999.90;;;;;;;;;;5117009;27;20500;-71
2022/06/28 11:49:50;;;;;;;1999.90;999.90;;;;;;;;;;5116277;27;20382;-71
2022/06/28 11:52:18;;;;;;;1999.90;999.90;;;;;;;;;;5115919;27;20394;-71
2022/06/28 11:54:55;;;;;;;1999.90;999.90;;;;;;;;;;5116838;27;20386;-70
2022/06/28 11:57:23;;;;;;;1999.90;999.90;;;;;;;;;;5115162;27;20938;-72
2022/06/28 11:59:52;;;;;;;1999.90;999.90;;;;;;;;;;5113897;27;20507;-70
2022/06/28 12:02:41;;;;;;;1999.90;999.90;;;;;;;;;;5113089;27;20433;-73
2022/06/28 12:05:09;;;;;;;1999.90;999.90;;;;;;;;;;5090236;28;20416;-69
2022/06/28 12:07:38;;;;;;;1999.90;999.90;;;;;;;;;;5112350;27;20430;-72
2022/06/28 12:10:10;;;;;;;1999.90;999.90;;;;;;;;;;5095222;27;20486;-72
2022/06/28 12:12:41;;;;;;;1999.90;999.90;;;;;;;;;;5094663;28;20514;-71
2022/06/28 12:15:09;;;;;;;1999.90;999.90;;;;;;;;;;5094235;27;20399;-73
2022/06/28 12:17:43;;;;;;;1999.90;999.90;;;;;;;;;;5098164;28;20413;-71
2022/06/28 12:20:12;;;;;;;1999.90;999.90;;;;;;;;;;5098887;28;20395;-71
2022/06/28 12:22:40;;;;;;;1999.90;999.90;;;;;;;;;;5096323;27;20392;-73
2022/06/28 12:25:13;;;;;;;1999.90;999.90;;;;;;;;;;5097119;27;20416;-71
2022/06/28 12:27:40;;;;;;;1999.90;999.90;;;;;;;;;;5097014;27;20411;-72
2022/06/28 12:30:08;;;;;;;1999.90;999.90;;;;;;;;;;5099984;28;20406;-75
2022/06/28 12:32:36;;;;;;;1999.90;999.90;;;;;;;;;;5096557;28;20499;-72
2022/06/28 12:35:15;;;;;;;1999.90;999.90;;;;;;;;;;5098783;28;20384;-74
2022/06/28 12:37:43;;;;;;;1999.90;999.90;;;;;;;;;;5098884;28;20403;-75
2022/06/28 12:40:13;;;;;;;1999.90;999.90;;;;;;;;;;5097754;28;20951;-72
2022/06/28 12:42:41;;;;;;;1999.90;999.90;;;;;;;;;;5098715;28;21183;-72
2022/06/28 12:45:09;;;;;;;1999.90;999.90;;;;;;;;;;5100370;27;20441;-73
2022/06/28 12:47:37;;;;;;;1999.90;999.90;;;;;;;;;;5081712;28;20395;-74
2022/06/28 12:50:07;;;;;;;1999.90;999.90;;;;;;;;;;5098169;27;20384;-71
2022/06/28 12:52:35;;;;;;;1999.90;999.90;;;;;;;;;;5097973;28;20399;-71
2022/06/28 12:55:04;;;;;;;1999.90;999.90;;;;;;;;;;5099682;28;20390;-72
2022/06/28 12:57:33;;;;;;;1999.90;999.90;;;;;;;;;;5099164;28;20403;-70
2022/06/28 13:00:00;;;;;;;1999.90;999.90;;;;;;;;;;5096956;28;20387;-70
2022/06/28 13:02:29;;;;;;;1999.90;999.90;;;;;;;;;;5096707;27;20395;-71
2022/06/28 13:04:56;;;;;;;1999.90;999.90;;;;;;;;;;5097231;27;20393;-71
2022/06/28 13:07:24;;;;;;;1999.90;999.90;;;;;;;;;;5097658;28;20478;-73
2022/06/28 13:09:52;;;;;;;1999.90;999.90;;;;;;;;;;5082582;28;20400;-70
2022/06/28 13:12:20;;;;;;;1999.90;999.90;;;;;;;;;;5096620;28;20403;-71
2022/06/28 13:14:53;;;;;;;1999.90;999.90;;;;;;;;;;5100723;28;20414;-71
2022/06/28 13:17:23;;;;;;;1999.90;999.90;;;;;;;;;;5098744;28;20956;-73
2022/06/28 13:19:51;;;;;;;1999.90;999.90;;;;;;;;;;5082464;28;20438;-71
2022/06/28 13:22:39;;;;;;;1999.90;999.90;;;;;;;;;;5095526;27;20428;-72
2022/06/28 13:25:07;;;;;;;1999.90;999.90;;;;;;;;;;5098788;27;20399;-71
2022/06/28 13:27:36;;;;;;;1999.90;999.90;;;;;;;;;;5097650;28;20418;-70
2022/06/28 13:30:05;;;;;;;1999.90;999.90;;;;;;;;;;5100611;27;20386;-74
2022/06/28 13:32:34;;;;;;;1999.90;999.90;;;;;;;;;;5097593;28;20411;-71
2022/06/28 13:35:03;;;;;;;1999.90;999.90;;;;;;;;;;5099009;27;20465;-71
2022/06/28 13:37:31;;;;;;;1999.90;999.90;;;;;;;;;;5099566;28;20411;-71
2022/06/28 13:40:05;;;;;;;1999.90;999.90;;;;;;;;;;5096979;27;21118;-70
2022/06/28 13:42:33;;;;;;;1999.90;999.90;;;;;;;;;;5096572;27;20415;-73
2022/06/28 13:45:01;;;;;;;1999.90;999.90;;;;;;;;;;5099606;27;20391;-73
2022/06/28 13:47:31;;;;;;;1999.90;999.90;;;;;;;;;;5099228;27;21301;-72
2022/06/28 13:49:58;;;;;;;1999.90;999.90;;;;;;;;;;5100001;28;20370;-74
2022/06/28 13:52:26;;;;;;;1999.90;999.90;;;;;;;;;;5078965;28;20394;-72
2022/06/28 13:54:54;;;;;;;1999.90;999.90;;;;;;;;;;5098025;27;20390;-70
2022/06/28 13:57:25;;;;;;;1999.90;999.90;;;;;;;;;;5095720;27;20411;-71
2022/06/28 13:59:55;;;;;;;1999.90;999.90;;;;;;;;;;5096869;27;20438;-71
2022/06/28 14:02:23;;;;;;;1999.90;999.90;;;;;;;;;;5078155;28;20415;-69
2022/06/28 14:04:53;;;;;;;1999.90;999.90;;;;;;;;;;5098693;27;20920;-70
2022/06/28 14:07:20;;;;;;;1999.90;999.90;;;;;;;;;;5097546;28;20453;-69
2022/06/28 14:09:48;;;;;;;1999.90;999.90;;;;;;;;;;5096736;27;21720;-70
2022/06/28 14:12:16;;;;;;;1999.90;999.90;;;;;;;;;;5095210;27;20415;-69
2022/06/28 14:14:44;;;;;;;1999.90;999.90;;;;;;;;;;5097289;28;20935;-70
2022/06/28 14:17:12;;;;;;;1999.90;999.90;;;;;;;;;;5098989;27;20411;-70
2022/06/28 14:19:40;;;;;;;1999.90;999.90;;;;;;;;;;5099444;27;20519;-71
2022/06/28 14:22:09;;;;;;;1999.90;999.90;;;;;;;;;;5096910;27;20395;-70